TimeEST,TemperatureF,Dew PointF,Humidity,Sea Level PressureIn,VisibilityMPH,Wind Direction,Wind SpeedMPH,Gust SpeedMPH,PrecipitationIn,Events,Conditions,WindDirDegrees,DateUTC
12:54 AM,36.0,35.1,97,30.01,8.0,ENE,4.6,-,0.01,Rain,Light Rain,70,2012-12-10 05:54:00
1:54 AM,37.0,35.1,93,29.97,9.0,ENE,5.8,-,0.00,Rain,Light Rain,60,2012-12-10 06:54:00
2:54 AM,37.0,36.0,96,29.94,7.0,ENE,6.9,-,0.02,Rain,Light Rain,70,2012-12-10 07:54:00
3:54 AM,37.0,36.0,96,29.90,3.0,NE,5.8,-,0.02,Rain,Light Rain,50,2012-12-10 08:54:00
4:01 AM,37.4,35.6,93,29.88,4.0,ENE,6.9,-,0.01,Rain,Light Rain,60,2012-12-10 09:01:00
4:54 AM,37.9,37.0,97,29.84,8.0,ENE,5.8,-,0.02,,Overcast,60,2012-12-10 09:54:00
5:54 AM,37.9,37.0,97,29.82,4.0,NE,5.8,-,0.01,Rain,Light Rain,40,2012-12-10 10:54:00
6:08 AM,37.4,37.4,100,29.80,3.0,NE,5.8,-,0.00,Rain,Light Rain,40,2012-12-10 11:08:00
6:54 AM,37.0,37.0,100,29.80,3.0,NNE,4.6,-,0.01,,Overcast,30,2012-12-10 11:54:00
7:03 AM,37.4,37.4,100,29.78,2.5,Calm,Calm,-,0.00,Rain,Light Rain,0,2012-12-10 12:03:00
7:44 AM,37.4,37.4,100,29.76,1.8,Calm,Calm,-,0.01,,Overcast,0,2012-12-10 12:44:00
7:54 AM,37.9,37.0,97,29.77,2.0,NNE,4.6,-,0.01,,Overcast,30,2012-12-10 12:54:00
8:10 AM,37.4,37.4,100,29.75,1.2,Calm,Calm,-,N/A,,Overcast,0,2012-12-10 13:10:00
8:54 AM,37.9,37.9,100,29.75,1.2,Calm,Calm,-,N/A,,Overcast,0,2012-12-10 13:54:00
9:13 AM,39.2,39.2,100,29.72,0.5,NE,4.6,-,N/A,Fog,Fog,50,2012-12-10 14:13:00
9:24 AM,39.2,37.4,93,29.72,0.2,NE,4.6,-,N/A,Fog,Fog,40,2012-12-10 14:24:00
9:42 AM,39.2,39.2,100,29.72,1.0,Calm,Calm,-,N/A,,Mist,0,2012-12-10 14:42:00
9:54 AM,39.0,39.0,100,29.73,1.8,Calm,Calm,-,N/A,,Overcast,0,2012-12-10 14:54:00
10:05 AM,39.2,39.2,100,29.71,2.0,Calm,Calm,-,N/A,,Overcast,0,2012-12-10 15:05:00
10:20 AM,41.0,41.0,100,29.71,1.5,Calm,Calm,-,N/A,,Overcast,0,2012-12-10 15:20:00
10:54 AM,48.0,48.0,100,29.68,1.5,SW,6.9,-,N/A,,Overcast,230,2012-12-10 15:54:00
11:03 AM,48.2,48.2,100,29.67,3.0,WSW,9.2,-,N/A,,Overcast,240,2012-12-10 16:03:00
11:13 AM,51.8,48.2,88,29.66,7.0,SW,11.5,21.9,N/A,,Overcast,220,2012-12-10 16:13:00
11:54 AM,53.1,50.0,89,29.62,10.0,SW,17.3,27.6,N/A,,Overcast,220,2012-12-10 16:54:00
12:54 PM,52.0,50.0,93,29.59,9.0,SW,17.3,31.1,N/A,,Overcast,230,2012-12-10 17:54:00
1:54 PM,52.0,50.0,93,29.56,10.0,SW,10.4,19.6,N/A,,Overcast,220,2012-12-10 18:54:00
2:54 PM,52.0,50.0,93,29.57,10.0,SW,12.7,21.9,N/A,,Overcast,230,2012-12-10 19:54:00
3:43 PM,51.8,48.2,88,29.54,10.0,SW,9.2,-,0.00,,Mostly Cloudy,230,2012-12-10 20:43:00
3:54 PM,51.1,48.9,92,29.54,10.0,SW,6.9,-,0.00,,Mostly Cloudy,220,2012-12-10 20:54:00
4:13 PM,51.8,48.2,88,29.55,10.0,SW,5.8,-,N/A,,Overcast,230,2012-12-10 21:13:00
4:54 PM,51.1,48.9,92,29.53,10.0,SW,6.9,-,N/A,,Overcast,230,2012-12-10 21:54:00
5:32 PM,51.8,48.2,88,29.53,10.0,SW,8.1,-,N/A,,Overcast,230,2012-12-10 22:32:00
5:54 PM,51.1,48.9,92,29.51,9.0,SW,8.1,-,0.00,Rain,Light Rain,230,2012-12-10 22:54:00
6:54 PM,51.1,48.9,92,29.50,10.0,SSW,9.2,-,0.03,Rain,Light Rain,210,2012-12-10 23:54:00
7:54 PM,51.1,48.9,92,29.49,10.0,SW,8.1,-,0.00,,Overcast,220,2012-12-11 00:54:00
8:44 PM,51.8,48.2,88,29.52,7.0,WNW,19.6,31.1,0.02,Rain,Light Rain,290,2012-12-11 01:44:00
8:51 PM,46.4,44.6,93,29.53,5.0,WNW,17.3,31.1,0.04,Rain,Light Rain,300,2012-12-11 01:51:00
8:54 PM,46.0,44.1,93,29.54,5.0,WNW,17.3,28.8,0.04,Rain,Light Rain,300,2012-12-11 01:54:00
9:00 PM,44.6,42.8,93,29.54,8.0,WNW,16.1,23.0,0.01,Rain,Light Rain,300,2012-12-11 02:00:00
9:15 PM,42.8,39.2,87,29.54,10.0,West,11.5,23.0,0.02,Rain,Light Rain,280,2012-12-11 02:15:00
9:54 PM,41.0,37.9,89,29.56,10.0,Variable,4.6,16.1,0.02,,Overcast,0,2012-12-11 02:54:00
10:32 PM,41.0,37.4,87,29.60,7.0,WSW,6.9,16.1,0.00,Rain,Light Rain,240,2012-12-11 03:32:00
10:54 PM,39.9,39.0,97,29.58,5.0,West,5.8,-,0.00,,Overcast,260,2012-12-11 03:54:00
11:32 PM,41.0,37.4,87,29.60,10.0,West,9.2,-,N/A,,Overcast,280,2012-12-11 04:32:00
11:54 PM,39.9,37.9,93,29.59,10.0,WNW,9.2,18.4,N/A,,Overcast,290,2012-12-11 04:54:00